Inicio METAR Ruta Wind Satelite

Informe Meteorológico

Fecha: 2020/11/30 15:32:52 Local
2020.11.30 20:32 UTC


Estado: VENCIDO
Operación:
Pasto / Antonio Narin, Colombia (SKPS) 01-25N 077-16W
Nov 11, 2020 - 06:00 AM EST / 2020.11.11 1100 UTC
Wind: Calm:0
Visibility: less than 1 mile:0
Sky conditions: obscured
Weather: fog
Temperature: 60 F (16 C)
Dew Point: 60 F (16 C)
Relative Humidity: 100%
Pressure (altimeter): 30.16 in. Hg (1021 hPa)
ob: SKPS 111100Z 00000KT 0100 FG VV001 16/16 A3016 RMK AD BLW MNM MET
cycle: 11